Time;durP1;ratioP1;P1;durP2;ratioP2;P2;SDS_P1;SDS_P2;PMS_P1;PMS_P2;Temp;Humidity;BMP_temperature;BMP_pressure;BME280_temperature;BME280_humidity;BME280_pressure;Samples;Min_cycle;Max_cycle;Signal;HPM_P1;HPM_P2
2021/07/08 00:00:40;;;;;;;1.80;1.70;;;;;;;19.03;86.68;97046.50;5113167;28;20214;-57
2021/07/08 00:03:05;;;;;;;1.90;1.80;;;;;;;19.05;86.75;97044.38;5099204;28;20180;-57
2021/07/08 00:05:36;;;;;;;2.20;2.00;;;;;;;19.04;86.99;97049.94;5097791;28;20237;-57
2021/07/08 00:08:02;;;;;;;1.80;1.70;;;;;;;19.03;87.18;97043.84;5112410;28;20181;-57
2021/07/08 00:10:36;;;;;;;2.07;1.97;;;;;;;19.11;86.74;97042.47;5106850;28;20353;-58
2021/07/08 00:13:02;;;;;;;2.63;1.93;;;;;;;19.14;86.60;97039.25;5105394;28;20635;-56
2021/07/08 00:15:28;;;;;;;2.43;2.23;;;;;;;19.16;86.30;97041.66;5107320;28;20317;-56
2021/07/08 00:17:55;;;;;;;3.50;2.17;;;;;;;18.88;87.77;97046.56;5100344;28;20632;-59
2021/07/08 00:20:22;;;;;;;1.83;1.73;;;;;;;18.68;89.39;97046.63;5102272;28;20640;-60
2021/07/08 00:22:47;;;;;;;1.90;1.80;;;;;;;18.45;90.41;97044.56;5105713;28;20282;-56
2021/07/08 00:25:16;;;;;;;2.67;2.00;;;;;;;18.48;90.97;97042.19;5105037;28;20626;-57
2021/07/08 00:27:42;;;;;;;2.63;1.60;;;;;;;18.72;89.63;97042.41;5082032;28;20183;-57
2021/07/08 00:30:08;;;;;;;2.40;1.60;;;;;;;18.86;88.87;97030.09;5108844;28;20204;-59
2021/07/08 00:32:35;;;;;;;1.90;1.70;;;;;;;18.97;87.95;97022.88;5104609;28;20219;-56
2021/07/08 00:35:01;;;;;;;1.90;1.80;;;;;;;18.95;87.96;97025.78;5112306;28;20213;-58
2021/07/08 00:37:26;;;;;;;2.30;1.80;;;;;;;18.87;88.58;97025.59;5091330;28;20212;-58
2021/07/08 00:39:52;;;;;;;2.20;2.03;;;;;;;18.85;89.71;97033.03;5112279;28;20231;-57
2021/07/08 00:42:18;;;;;;;2.30;2.08;;;;;;;18.85;89.89;97041.00;5112611;28;20196;-57
2021/07/08 00:44:45;;;;;;;1.80;1.70;;;;;;;18.81;90.43;97045.28;5112513;28;20217;-57
2021/07/08 00:47:10;;;;;;;1.90;1.80;;;;;;;18.84;90.33;97052.69;5096096;28;20279;-56
2021/07/08 00:49:35;;;;;;;1.80;1.70;;;;;;;18.86;90.95;97053.22;5093180;28;20291;-56
2021/07/08 00:52:01;;;;;;;2.33;2.13;;;;;;;18.89;91.52;97042.81;5106689;28;20180;-56
2021/07/08 00:54:26;;;;;;;2.00;1.90;;;;;;;18.90;91.20;97031.13;5101087;28;20189;-58
2021/07/08 00:56:51;;;;;;;2.10;2.00;;;;;;;18.84;91.54;97036.75;5095201;28;20247;-54
2021/07/08 00:59:18;;;;;;;2.53;2.13;;;;;;;18.81;92.44;97032.00;5092034;28;20242;-56
2021/07/08 01:01:44;;;;;;;2.08;1.92;;;;;;;18.79;92.89;97026.13;5094326;28;20200;-56
2021/07/08 01:04:10;;;;;;;4.47;2.40;;;;;;;18.84;92.83;97016.28;5105433;28;20180;-56
2021/07/08 01:06:40;;;;;;;2.53;2.10;;;;;;;18.86;92.75;97016.03;5099394;28;20180;-56
2021/07/08 01:09:06;;;;;;;3.80;2.20;;;;;;;18.76;92.86;96998.28;5101333;28;20223;-57
2021/07/08 01:11:31;;;;;;;3.72;2.40;;;;;;;18.61;93.77;96987.75;5106874;28;20184;-57
2021/07/08 01:13:57;;;;;;;2.30;2.20;;;;;;;18.62;93.61;96979.47;5109562;28;20212;-56
2021/07/08 01:16:24;;;;;;;2.33;2.20;;;;;;;18.45;95.25;96968.38;5097811;28;20211;-61
2021/07/08 01:18:52;;;;;;;4.28;2.33;;;;;;;18.11;96.35;96972.75;5092812;28;20637;-54
2021/07/08 01:21:29;;;;;;;3.30;2.30;;;;;;;17.73;99.68;96964.34;5100748;28;20259;-58
2021/07/08 01:23:57;;;;;;;2.53;2.40;;;;;;;17.71;99.27;96957.72;5094306;28;20266;-54
2021/07/08 01:26:23;;;;;;;2.70;2.50;;;;;;;17.54;100.00;96954.53;5107870;28;20224;-58
2021/07/08 01:28:51;;;;;;;2.80;2.60;;;;;;;17.42;100.00;96949.50;5100035;28;20207;-55
2021/07/08 01:31:17;;;;;;;2.83;2.63;;;;;;;17.49;100.00;96959.84;5104259;28;20210;-56
2021/07/08 01:33:42;;;;;;;3.57;2.97;;;;;;;17.68;100.00;96971.50;5108320;28;20264;-56
2021/07/08 01:36:08;;;;;;;3.30;3.00;;;;;;;17.90;99.25;96964.03;5094401;28;20267;-56
2021/07/08 01:38:33;;;;;;;2.93;2.73;;;;;;;18.01;98.97;96967.47;5103062;28;20212;-56
2021/07/08 01:40:59;;;;;;;3.00;2.80;;;;;;;18.18;96.74;96966.09;5100917;28;20275;-58
2021/07/08 01:43:24;;;;;;;3.73;2.83;;;;;;;18.33;95.66;96983.03;5110322;28;20172;-60
2021/07/08 01:45:50;;;;;;;2.83;2.53;;;;;;;18.40;95.55;96986.97;5096342;28;20192;-57
2021/07/08 01:48:15;;;;;;;3.30;2.97;;;;;;;18.31;97.43;96974.53;5097262;28;20272;-56
2021/07/08 01:50:41;;;;;;;3.90;3.50;;;;;;;18.25;98.47;96973.78;5096492;28;20283;-56
2021/07/08 01:53:06;;;;;;;3.43;3.13;;;;;;;18.22;99.26;96971.66;5097543;28;20203;-55
2021/07/08 01:55:31;;;;;;;3.70;3.40;;;;;;;18.23;99.38;96967.94;5097568;28;20237;-55
2021/07/08 01:57:57;;;;;;;3.20;3.00;;;;;;;18.31;99.41;96967.38;5096710;28;20181;-56
2021/07/08 02:00:25;;;;;;;2.78;2.60;;;;;;;18.15;99.94;96969.28;5109943;28;20225;-57
2021/07/08 02:02:55;;;;;;;2.97;2.63;;;;;;;17.80;100.00;96962.22;5108511;28;20236;-56
2021/07/08 02:05:21;;;;;;;3.37;2.57;;;;;;;17.76;100.00;96965.66;5095964;28;20613;-56
2021/07/08 02:07:47;;;;;;;3.60;3.37;;;;;;;17.82;100.00;96961.94;5094770;28;20184;-55
2021/07/08 02:10:15;;;;;;;4.13;3.73;;;;;;;17.94;100.00;96954.50;5111203;28;20234;-57
2021/07/08 02:12:41;;;;;;;4.40;4.07;;;;;;;17.98;100.00;96947.59;5102126;28;20222;-56
2021/07/08 02:15:08;;;;;;;5.10;4.70;;;;;;;18.05;100.00;96950.75;5111844;28;20191;-57
2021/07/08 02:17:34;;;;;;;4.80;4.40;;;;;;;17.95;100.00;96960.56;5093972;28;20181;-58
2021/07/08 02:20:00;;;;;;;5.40;4.90;;;;;;;17.83;100.00;96951.06;5103231;28;20180;-56
2021/07/08 02:22:26;;;;;;;5.00;4.70;;;;;;;17.85;100.00;96951.59;5092802;28;20191;-60
2021/07/08 02:24:51;;;;;;;5.20;4.13;;;;;;;17.83;100.00;96955.59;5105664;28;20187;-56
2021/07/08 02:27:17;;;;;;;4.73;4.40;;;;;;;17.79;100.00;96951.88;5097551;28;20479;-56
2021/07/08 02:29:43;;;;;;;4.37;4.03;;;;;;;17.65;100.00;96943.69;5101613;28;20203;-57
2021/07/08 02:32:09;;;;;;;4.70;4.30;;;;;;;17.68;100.00;96939.69;5111101;28;20194;-56
2021/07/08 02:34:38;;;;;;;4.43;4.13;;;;;;;17.70;100.00;96948.97;5102929;28;20210;-57
2021/07/08 02:37:05;;;;;;;4.83;4.47;;;;;;;17.68;100.00;96953.75;5107822;28;20254;-57
2021/07/08 02:39:31;;;;;;;4.50;4.20;;;;;;;17.73;100.00;96966.19;5098233;28;20696;-54
2021/07/08 02:41:57;;;;;;;4.77;4.37;;;;;;;17.79;100.00;96962.47;5100876;28;20255;-55
2021/07/08 02:44:22;;;;;;;5.00;4.60;;;;;;;17.81;100.00;96958.50;5104383;28;20190;-58
2021/07/08 02:46:47;;;;;;;4.87;4.40;;;;;;;17.79;100.00;96952.66;5091725;28;20169;-57
2021/07/08 02:49:13;;;;;;;3.83;3.57;;;;;;;17.81;100.00;96957.69;5106876;28;20654;-57
2021/07/08 02:51:38;;;;;;;3.70;3.50;;;;;;;17.81;100.00;96963.00;5097664;28;20181;-57
2021/07/08 02:54:04;;;;;;;4.10;3.77;;;;;;;17.84;100.00;96965.09;5093543;28;20596;-55
2021/07/08 02:56:29;;;;;;;4.67;4.27;;;;;;;17.87;100.00;96964.59;5105481;28;20179;-57
2021/07/08 02:58:54;;;;;;;4.80;4.37;;;;;;;17.93;100.00;96971.47;5094737;28;20628;-58
2021/07/08 03:01:20;;;;;;;4.73;4.30;;;;;;;17.92;100.00;96980.50;5104488;28;20198;-57
2021/07/08 03:03:45;;;;;;;4.27;4.07;;;;;;;17.80;100.00;96986.06;5110720;28;20171;-53
2021/07/08 03:06:11;;;;;;;5.20;4.70;;;;;;;17.79;100.00;96973.06;5099547;28;20652;-55
2021/07/08 03:08:36;;;;;;;4.33;4.03;;;;;;;17.83;100.00;96977.56;5088951;28;20183;-52
2021/07/08 03:11:02;;;;;;;4.60;4.30;;;;;;;17.83;100.00;96974.91;5102119;28;20193;-57
2021/07/08 03:13:28;;;;;;;4.77;4.47;;;;;;;17.83;100.00;96976.81;5105879;28;20184;-58
2021/07/08 03:15:53;;;;;;;4.10;3.70;;;;;;;17.81;100.00;96978.91;5099294;28;20552;-52
2021/07/08 03:18:18;;;;;;;4.80;4.40;;;;;;;17.84;100.00;96984.47;5110973;28;20179;-56
2021/07/08 03:20:46;;;;;;;4.53;4.23;;;;;;;17.84;100.00;96988.97;5104716;28;20192;-56
2021/07/08 03:23:11;;;;;;;7.23;5.13;;;;;;;17.86;100.00;96997.47;5094542;28;20712;-56
2021/07/08 03:25:37;;;;;;;5.03;4.60;;;;;;;17.84;100.00;96994.28;5108421;28;20311;-56
2021/07/08 03:28:03;;;;;;;4.93;4.60;;;;;;;17.80;100.00;96998.53;5103659;28;20267;-55
2021/07/08 03:30:30;;;;;;;5.47;4.50;;;;;;;17.84;100.00;97002.22;5113219;28;20261;-61
2021/07/08 03:32:57;;;;;;;4.80;4.37;;;;;;;17.87;100.00;97009.66;5112543;28;20180;-55
2021/07/08 03:35:23;;;;;;;5.23;4.83;;;;;;;17.83;100.00;97013.94;5108647;28;20264;-53
2021/07/08 03:37:49;;;;;;;6.77;4.70;;;;;;;17.80;100.00;97004.63;5103226;28;20193;-56
2021/07/08 03:40:16;;;;;;;6.77;4.57;;;;;;;17.78;100.00;97014.69;5108151;28;20224;-53
2021/07/08 03:42:43;;;;;;;6.33;5.17;;;;;;;17.75;100.00;97020.56;5097905;28;20230;-58
2021/07/08 03:45:10;;;;;;;5.77;5.27;;;;;;;17.74;100.00;97020.81;5111144;28;20182;-54
2021/07/08 03:47:35;;;;;;;5.57;5.07;;;;;;;17.71;100.00;97026.66;5099748;28;20184;-56
2021/07/08 03:50:01;;;;;;;6.27;5.17;;;;;;;17.69;100.00;97024.25;5104832;28;20213;-56
2021/07/08 03:52:27;;;;;;;7.67;5.97;;;;;;;17.66;100.00;97008.91;5107679;28;20206;-60
2021/07/08 03:54:53;;;;;;;6.77;5.63;;;;;;;17.61;100.00;97005.47;5096980;28;20180;-57
2021/07/08 03:57:18;;;;;;;7.13;6.17;;;;;;;17.46;100.00;97012.28;5112919;28;20253;-56
2021/07/08 03:59:43;;;;;;;6.70;5.90;;;;;;;17.36;100.00;97012.28;5112613;28;20210;-57
2021/07/08 04:02:09;;;;;;;6.73;5.67;;;;;;;17.44;100.00;97006.47;5105716;28;20172;-57
2021/07/08 04:04:38;;;;;;;6.03;5.40;;;;;;;17.44;100.00;97008.34;5106003;28;20180;-57
2021/07/08 04:07:07;;;;;;;6.43;5.73;;;;;;;17.56;100.00;96995.59;5095041;28;20620;-54
2021/07/08 04:09:33;;;;;;;7.10;5.43;;;;;;;17.62;100.00;97001.72;5081267;28;20222;-59
2021/07/08 04:11:59;;;;;;;6.97;5.43;;;;;;;17.75;100.00;96995.88;5105937;28;20189;-56
2021/07/08 04:14:24;;;;;;;6.60;6.00;;;;;;;17.77;100.00;97007.03;5104387;28;20188;-55
2021/07/08 04:16:49;;;;;;;6.40;5.33;;;;;;;17.71;100.00;97011.53;5112901;28;20796;-55
2021/07/08 04:19:15;;;;;;;5.87;5.23;;;;;;;17.71;100.00;97019.50;5096606;28;20180;-56
2021/07/08 04:21:40;;;;;;;5.70;5.20;;;;;;;17.90;100.00;97011.78;5094313;28;20173;-56
2021/07/08 04:24:06;;;;;;;6.07;5.53;;;;;;;17.98;100.00;97002.50;5104004;28;20183;-56
2021/07/08 04:26:31;;;;;;;5.57;5.10;;;;;;;17.95;100.00;96995.84;5100067;28;20188;-59
2021/07/08 04:28:57;;;;;;;6.23;5.27;;;;;;;17.94;100.00;96988.19;5109641;28;20725;-57
2021/07/08 04:31:22;;;;;;;7.50;5.30;;;;;;;17.76;100.00;96985.03;5097198;28;20207;-55
2021/07/08 04:33:47;;;;;;;5.97;5.30;;;;;;;17.71;100.00;96985.03;5106325;28;20184;-55
2021/07/08 04:36:13;;;;;;;6.10;5.50;;;;;;;17.58;100.00;96988.19;5102163;28;20204;-55
2021/07/08 04:38:41;;;;;;;6.13;5.53;;;;;;;17.66;100.00;96982.38;5107761;28;20522;-55
2021/07/08 04:41:07;;;;;;;6.73;6.13;;;;;;;17.69;100.00;96973.88;5095602;28;20172;-56
2021/07/08 04:43:32;;;;;;;6.23;5.53;;;;;;;17.54;100.00;96979.19;5112604;28;20536;-59
2021/07/08 04:45:58;;;;;;;6.20;5.70;;;;;;;17.40;100.00;96976.25;5097212;28;20263;-57
2021/07/08 04:48:23;;;;;;;6.37;5.73;;;;;;;17.31;100.00;96980.50;5107143;28;20230;-57
2021/07/08 04:50:48;;;;;;;6.30;5.70;;;;;;;17.41;100.00;96969.91;5100653;28;20191;-56
2021/07/08 04:53:15;;;;;;;7.10;6.50;;;;;;;17.38;100.00;96974.94;5107669;28;20180;-57
2021/07/08 04:55:41;;;;;;;7.17;6.47;;;;;;;17.36;100.00;96974.41;5096954;28;20641;-58
2021/07/08 04:58:06;;;;;;;7.63;6.93;;;;;;;17.42;100.00;96968.03;5109866;28;20229;-56
2021/07/08 05:00:31;;;;;;;7.30;6.10;;;;;;;17.54;100.00;96965.94;5097799;28;20640;-60
2021/07/08 05:02:57;;;;;;;7.03;6.27;;;;;;;17.64;100.00;96960.66;5111974;28;20275;-57
2021/07/08 05:05:23;;;;;;;6.47;5.87;;;;;;;17.74;100.00;96951.88;5098049;28;20589;-57
2021/07/08 05:07:50;;;;;;;6.73;6.07;;;;;;;17.79;100.00;96957.97;5094754;28;20625;-55
2021/07/08 05:10:16;;;;;;;5.57;5.10;;;;;;;17.83;100.00;96966.97;5092201;28;20204;-57
2021/07/08 05:12:43;;;;;;;6.23;5.33;;;;;;;17.98;100.00;96971.47;5093265;28;20184;-57
2021/07/08 05:15:10;;;;;;;7.40;4.93;;;;;;;18.11;100.00;96976.19;5111793;28;20248;-56
2021/07/08 05:17:36;;;;;;;6.30;4.60;;;;;;;18.08;100.00;96970.63;5099177;28;20574;-55
2021/07/08 05:20:04;;;;;;;7.40;5.63;;;;;;;18.26;100.00;96964.75;5108971;28;20668;-59
2021/07/08 05:22:34;;;;;;;5.13;4.73;;;;;;;18.38;100.00;96951.97;5110098;28;20184;-56
2021/07/08 05:25:00;;;;;;;5.57;5.07;;;;;;;18.17;100.00;96953.88;5105494;28;20169;-60
2021/07/08 05:27:26;;;;;;;5.13;4.73;;;;;;;18.18;100.00;96946.72;5103303;28;20184;-56
2021/07/08 05:29:51;;;;;;;6.00;5.37;;;;;;;18.05;100.00;96953.41;5097563;28;20196;-57
2021/07/08 05:32:18;;;;;;;6.37;5.23;;;;;;;18.06;100.00;96952.31;5109527;28;20184;-57
2021/07/08 05:34:44;;;;;;;4.97;4.57;;;;;;;18.11;100.00;96968.22;5111511;28;20172;-58
2021/07/08 05:37:10;;;;;;;6.17;4.00;;;;;;;18.15;100.00;96981.75;5103455;28;20176;-57
2021/07/08 05:39:36;;;;;;;5.43;4.87;;;;;;;18.28;100.00;96995.25;5094987;28;20318;-57
2021/07/08 05:42:01;;;;;;;5.37;4.87;;;;;;;18.33;100.00;96996.31;5104224;28;20440;-58
2021/07/08 05:44:27;;;;;;;5.33;4.70;;;;;;;18.35;100.00;96994.97;5092701;28;20189;-59
2021/07/08 05:46:52;;;;;;;4.93;4.53;;;;;;;18.30;100.00;97018.88;5091787;28;20180;-59
2021/07/08 05:49:18;;;;;;;5.27;4.77;;;;;;;18.32;100.00;97037.19;5090933;28;20559;-59
2021/07/08 05:51:43;;;;;;;6.93;4.23;;;;;;;18.26;100.00;97047.81;5105488;28;20670;-58
2021/07/08 05:54:09;;;;;;;4.97;4.47;;;;;;;18.12;100.00;97051.25;5096689;28;20185;-58
2021/07/08 05:56:34;;;;;;;4.73;4.27;;;;;;;18.16;100.00;97055.00;5101088;28;20219;-60
2021/07/08 05:59:00;;;;;;;4.53;4.03;;;;;;;18.09;100.00;97065.88;5093820;28;20180;-59
2021/07/08 06:01:25;;;;;;;5.70;4.53;;;;;;;18.15;100.00;97075.44;5101064;28;20552;-55
2021/07/08 06:03:50;;;;;;;4.87;4.47;;;;;;;18.07;100.00;97083.09;5091861;28;20507;-58
2021/07/08 06:06:16;;;;;;;5.10;4.30;;;;;;;18.26;100.00;97092.13;5092758;28;20187;-59
2021/07/08 06:08:43;;;;;;;4.70;4.30;;;;;;;18.22;100.00;97101.69;5105277;28;20233;-59
2021/07/08 06:11:09;;;;;;;6.73;4.90;;;;;;;18.24;100.00;97099.53;5094903;28;20182;-57
2021/07/08 06:13:35;;;;;;;5.00;4.60;;;;;;;18.35;99.69;97095.00;5090843;28;20191;-61
2021/07/08 06:16:00;;;;;;;4.93;4.43;;;;;;;18.35;100.00;97095.81;5105625;28;20176;-58
2021/07/08 06:18:26;;;;;;;7.17;4.40;;;;;;;18.41;99.90;97101.91;5097382;28;20630;-59
2021/07/08 06:20:51;;;;;;;6.43;4.87;;;;;;;18.42;99.32;97099.00;5107454;28;20187;-59
2021/07/08 06:23:19;;;;;;;5.73;4.80;;;;;;;18.59;98.31;97083.59;5097023;28;20271;-57
2021/07/08 06:25:45;;;;;;;7.97;4.90;;;;;;;18.50;99.05;97079.09;5107080;28;20172;-57
2021/07/08 06:28:11;;;;;;;5.70;4.50;;;;;;;18.69;97.83;97088.06;5097812;28;20179;-62
2021/07/08 06:30:36;;;;;;;4.63;3.87;;;;;;;18.83;96.97;97075.81;5102000;28;20206;-59
2021/07/08 06:33:01;;;;;;;6.17;4.37;;;;;;;19.00;96.29;97070.16;5100740;28;20230;-56
2021/07/08 06:35:27;;;;;;;5.10;4.00;;;;;;;19.10;95.41;97062.13;5102039;28;20547;-58
2021/07/08 06:37:52;;;;;;;4.33;4.00;;;;;;;19.31;93.69;97063.59;5103704;28;20614;-58
2021/07/08 06:40:18;;;;;;;4.50;4.10;;;;;;;19.37;93.67;97064.38;5087801;28;20318;-59
2021/07/08 06:42:44;;;;;;;4.03;3.70;;;;;;;19.11;95.58;97063.72;5106154;28;20184;-56
2021/07/08 06:45:12;;;;;;;4.33;3.93;;;;;;;18.99;96.84;97063.25;5099355;28;20181;-58
2021/07/08 06:47:43;;;;;;;5.55;4.05;;;;;;;18.96;97.14;97063.78;5106305;28;20493;-55
2021/07/08 06:50:10;;;;;;;5.70;3.70;;;;;;;19.20;96.10;97070.06;5094718;28;20202;-57
2021/07/08 06:52:35;;;;;;;4.50;3.72;;;;;;;19.44;94.98;97078.97;5088243;28;20637;-61
2021/07/08 06:55:01;;;;;;;4.17;3.80;;;;;;;19.44;94.35;97075.50;5091562;28;20186;-58
2021/07/08 06:57:26;;;;;;;3.53;3.22;;;;;;;19.58;93.53;97073.81;5099716;28;20188;-58
2021/07/08 06:59:52;;;;;;;4.00;3.60;;;;;;;19.64;92.82;97082.56;5099247;28;20829;-56
2021/07/08 07:02:17;;;;;;;3.75;3.45;;;;;;;19.66;92.32;97085.75;5100573;28;20176;-57
2021/07/08 07:04:42;;;;;;;5.40;3.50;;;;;;;19.67;91.99;97088.13;5110794;28;20546;-56
2021/07/08 07:07:08;;;;;;;4.28;3.60;;;;;;;19.65;92.34;97078.84;5095237;28;20225;-58
2021/07/08 07:09:33;;;;;;;3.78;3.47;;;;;;;19.70;91.72;97076.94;5102546;28;20257;-61
2021/07/08 07:11:59;;;;;;;3.83;3.53;;;;;;;19.85;90.11;97084.78;5096199;28;20645;-57
2021/07/08 07:14:24;;;;;;;3.83;3.60;;;;;;;19.81;90.24;97067.81;5114026;28;20229;-59
2021/07/08 07:16:49;;;;;;;4.30;3.85;;;;;;;19.65;91.16;97074.31;5104683;28;20184;-59
2021/07/08 07:19:15;;;;;;;4.10;3.70;;;;;;;19.74;90.86;97066.53;5096630;28;20185;-59
2021/07/08 07:21:40;;;;;;;3.83;3.43;;;;;;;19.92;90.21;97066.66;5095014;28;20176;-59
2021/07/08 07:24:06;;;;;;;5.45;3.30;;;;;;;20.12;89.43;97054.22;5103974;28;20173;-58
2021/07/08 07:26:31;;;;;;;4.53;4.10;;;;;;;20.33;88.45;97055.66;5100040;28;20180;-60
2021/07/08 07:28:56;;;;;;;3.60;3.30;;;;;;;20.51;87.46;97056.78;5100964;28;20600;-58
2021/07/08 07:31:22;;;;;;;5.93;3.70;;;;;;;20.71;86.72;97065.38;5094051;28;20226;-58
2021/07/08 07:33:47;;;;;;;3.95;3.40;;;;;;;20.89;85.49;97065.69;5101531;28;20188;-57
2021/07/08 07:36:13;;;;;;;4.63;3.03;;;;;;;21.10;84.02;97062.47;5102828;28;20207;-58
2021/07/08 07:38:39;;;;;;;3.38;3.10;;;;;;;21.05;83.67;97067.09;5102500;28;20274;-59
2021/07/08 07:41:06;;;;;;;3.80;3.50;;;;;;;21.11;82.85;97066.75;5108891;28;20215;-60
2021/07/08 07:43:31;;;;;;;3.40;3.10;;;;;;;21.09;82.81;97058.22;5110362;28;20184;-61
2021/07/08 07:45:56;;;;;;;3.33;3.03;;;;;;;21.00;82.80;97056.50;5105836;28;20191;-62
2021/07/08 07:48:22;;;;;;;3.38;3.08;;;;;;;21.10;82.07;97059.81;5097074;28;20282;-60
2021/07/08 07:50:47;;;;;;;3.97;3.58;;;;;;;20.87;83.50;97062.50;5101884;28;20648;-59
2021/07/08 07:53:13;;;;;;;5.47;3.65;;;;;;;20.71;83.15;97046.72;5113931;28;20188;-59
2021/07/08 07:55:38;;;;;;;4.05;3.67;;;;;;;20.54;84.73;97046.38;5103890;28;20313;-59
2021/07/08 07:58:05;;;;;;;4.55;3.72;;;;;;;20.68;83.54;97057.13;5101677;28;20184;-60
2021/07/08 08:00:32;;;;;;;3.78;3.35;;;;;;;20.75;84.19;97058.38;5099733;28;20712;-61
2021/07/08 08:02:58;;;;;;;5.18;3.55;;;;;;;20.88;83.19;97067.56;5099587;28;20187;-59
2021/07/08 08:10:38;;;;;;;5.00;3.65;;;;;;;21.20;81.43;97069.56;5093398;28;20230;-60
2021/07/08 08:13:05;;;;;;;3.95;3.65;;;;;;;21.27;80.61;97063.88;5103689;28;20255;-60
2021/07/08 08:15:31;;;;;;;3.55;3.25;;;;;;;21.24;81.20;97064.44;5100043;28;20172;-61
2021/07/08 08:18:00;;;;;;;3.88;3.58;;;;;;;21.20;82.02;97068.78;5099803;28;20188;-60
2021/07/08 08:20:26;;;;;;;4.25;3.50;;;;;;;20.90;83.15;97068.06;5097481;28;20197;-60
2021/07/08 08:22:51;;;;;;;4.22;3.38;;;;;;;21.15;82.54;97065.09;5096479;28;20280;-60
2021/07/08 08:25:16;;;;;;;4.72;3.45;;;;;;;21.07;83.04;97062.25;5097522;28;20267;-60
2021/07/08 08:27:42;;;;;;;3.38;3.15;;;;;;;21.53;81.09;97065.91;5102045;28;20559;-60
2021/07/08 08:30:12;;;;;;;3.53;3.15;;;;;;;22.23;77.90;97062.41;5100018;28;20286;-59
2021/07/08 08:32:37;;;;;;;6.43;3.60;;;;;;;22.78;74.52;97066.75;5109155;28;20263;-60
2021/07/08 08:35:03;;;;;;;3.70;3.40;;;;;;;22.87;73.50;97072.16;5098186;28;20614;-60
2021/07/08 08:37:29;;;;;;;4.13;3.40;;;;;;;23.09;73.25;97080.25;5100150;28;20229;-60
2021/07/08 08:39:54;;;;;;;7.88;4.70;;;;;;;22.82;75.86;97074.16;5108384;28;20728;-60
2021/07/08 08:42:20;;;;;;;6.97;4.25;;;;;;;22.86;74.60;97069.78;5099282;28;20189;-60
2021/07/08 08:44:45;;;;;;;5.40;3.60;;;;;;;23.03;73.67;97064.63;5108840;28;20626;-60
2021/07/08 08:47:11;;;;;;;3.20;2.90;;;;;;;23.15;71.51;97067.56;5091297;28;20202;-60
2021/07/08 08:49:38;;;;;;;4.95;3.92;;;;;;;23.29;70.97;97073.72;5107154;28;20299;-60
2021/07/08 08:52:06;;;;;;;10.82;5.88;;;;;;;23.45;70.34;97072.28;5102801;28;20184;-60
2021/07/08 08:54:31;;;;;;;7.07;4.40;;;;;;;23.67;68.89;97071.53;5097090;28;20724;-62
2021/07/08 08:56:57;;;;;;;4.55;3.95;;;;;;;23.98;68.32;97076.94;5095624;28;20192;-60
2021/07/08 08:59:22;;;;;;;4.53;3.63;;;;;;;24.44;67.29;97076.59;5096500;28;20189;-60
2021/07/08 09:02:10;;;;;;;7.50;3.90;;;;;;;24.84;65.01;97088.13;5095393;28;20212;-60
2021/07/08 09:04:36;;;;;;;3.00;2.72;;;;;;;25.05;64.71;97083.81;5093232;28;20534;-61
2021/07/08 09:07:24;;;;;;;3.60;3.15;;;;;;;25.44;61.57;97093.66;5106935;28;20176;-60
2021/07/08 09:10:09;;;;;;;3.40;3.10;;;;;;;25.49;59.64;97104.22;5101804;28;20207;-60
2021/07/08 09:12:35;;;;;;;3.17;2.88;;;;;;;25.39;60.41;97109.91;5098984;28;20233;-62
2021/07/08 09:15:17;;;;;;;3.15;2.90;;;;;;;25.18;60.89;97112.41;5092276;28;20180;-60
2021/07/08 09:17:44;;;;;;;3.00;2.80;;;;;;;24.92;61.62;97116.88;5096075;28;20184;-61
2021/07/08 09:20:18;;;;;;;3.03;2.83;;;;;;;25.11;61.40;97122.78;5104499;28;20207;-60
2021/07/08 09:22:45;;;;;;;3.00;2.80;;;;;;;25.23;60.57;97128.34;5094643;28;20580;-60
2021/07/08 09:25:19;;;;;;;3.03;2.83;;;;;;;25.32;59.52;97117.63;5105524;28;20192;-60
2021/07/08 09:27:45;;;;;;;3.40;3.10;;;;;;;25.00;60.51;97120.72;5092557;28;20194;-60
2021/07/08 09:30:24;;;;;;;3.40;3.00;;;;;;;25.14;60.89;97118.69;5108584;28;20227;-60
2021/07/08 09:32:49;;;;;;;3.60;3.28;;;;;;;25.01;61.03;97111.56;5080930;28;20168;-61
2021/07/08 09:35:30;;;;;;;3.45;3.15;;;;;;;25.10;60.34;97113.16;5104737;28;20534;-60
2021/07/08 09:38:10;;;;;;;3.60;3.30;;;;;;;25.30;59.82;97109.09;5105824;28;20183;-60
2021/07/08 09:40:36;;;;;;;3.15;2.90;;;;;;;25.52;59.41;97105.50;5066352;28;20229;-62
2021/07/08 09:43:01;;;;;;;3.65;2.80;;;;;;;25.58;58.54;97099.69;5067546;28;20189;-60
2021/07/08 09:45:27;;;;;;;3.40;2.97;;;;;;;25.74;58.49;97099.22;5064381;28;20586;-60
2021/07/08 09:48:09;;;;;;;2.97;2.67;;;;;;;25.88;57.68;97097.16;5059113;28;20258;-60
2021/07/08 09:50:37;;;;;;;2.67;2.50;;;;;;;26.15;56.58;97094.13;5062425;28;20215;-62
2021/07/08 09:53:09;;;;;;;2.75;2.55;;;;;;;26.43;55.23;97091.88;5057341;28;20190;-60
2021/07/08 09:58:32;;;;;;;2.25;2.10;;;;;;;26.47;53.54;97096.28;5062153;28;20660;-60
2021/07/08 10:01:13;;;;;;;1.80;1.70;;;;;;;26.22;51.04;97096.31;5068729;28;20197;-60
2021/07/08 10:03:40;;;;;;;2.08;1.83;;;;;;;25.95;53.89;97090.22;5053953;28;20192;-61
2021/07/08 10:06:07;;;;;;;1.95;1.80;;;;;;;26.13;53.77;97087.50;5064259;28;20177;-60
2021/07/08 10:08:34;;;;;;;1.88;1.77;;;;;;;26.13;52.56;97092.88;5062397;28;20186;-60
2021/07/08 10:11:00;;;;;;;3.25;1.50;;;;;;;26.12;52.98;97093.97;5061896;28;20219;-60
2021/07/08 10:13:26;;;;;;;1.40;1.30;;;;;;;25.88;53.40;97084.53;5060769;28;20189;-60
2021/07/08 10:15:52;;;;;;;1.70;1.60;;;;;;;26.13;52.97;97080.22;5058626;28;20189;-60
2021/07/08 10:18:18;;;;;;;1.65;1.55;;;;;;;26.19;52.36;97070.91;5058880;28;20562;-62
2021/07/08 10:20:48;;;;;;;1.27;1.27;;;;;;;26.39;51.73;97066.75;5055884;28;20185;-60
2021/07/08 10:23:15;;;;;;;1.50;1.40;;;;;;;26.70;51.40;97069.94;5061535;28;20188;-60
2021/07/08 10:25:42;;;;;;;2.55;1.52;;;;;;;26.62;51.20;97070.78;5062822;28;20177;-61
2021/07/08 10:28:08;;;;;;;2.63;1.38;;;;;;;26.63;51.49;97071.56;5063883;28;20650;-61
2021/07/08 10:30:35;;;;;;;1.40;1.40;;;;;;;26.68;50.61;97069.50;5067832;28;20211;-63
2021/07/08 10:33:00;;;;;;;1.58;1.48;;;;;;;26.61;50.75;97069.19;5054928;28;20263;-61
2021/07/08 10:35:43;;;;;;;2.70;1.45;;;;;;;26.34;51.86;97054.28;5058197;28;20189;-61
2021/07/08 10:38:27;;;;;;;1.10;1.10;;;;;;;26.00;50.86;97060.50;5064722;28;20514;-61
2021/07/08 10:40:58;;;;;;;1.30;1.10;;;;;;;26.14;51.53;97062.22;5064311;28;20185;-62
2021/07/08 10:43:44;;;;;;;1.60;1.50;;;;;;;26.34;51.64;97069.59;5063877;28;20197;-60
2021/07/08 10:46:14;;;;;;;1.30;1.30;;;;;;;26.30;52.10;97069.47;5061474;28;20178;-61
2021/07/08 10:48:45;;;;;;;1.13;1.13;;;;;;;26.26;52.19;97071.19;5058565;28;20202;-62
2021/07/08 10:51:38;;;;;;;1.55;1.45;;;;;;;25.62;52.17;97075.69;5050603;28;20519;-61
2021/07/08 10:54:26;;;;;;;1.50;1.40;;;;;;;24.99;53.74;97081.56;5052623;28;20261;-60
2021/07/08 10:56:53;;;;;;;1.35;1.25;;;;;;;24.74;54.13;97091.09;5051251;28;20190;-60
2021/07/08 10:59:18;;;;;;;1.17;1.17;;;;;;;24.51;54.70;97087.69;5066093;28;20266;-60
2021/07/08 11:01:46;;;;;;;1.20;1.20;;;;;;;24.60;54.79;97096.56;5059064;28;20217;-60
2021/07/08 11:04:12;;;;;;;1.38;1.38;;;;;;;24.46;56.06;97097.75;5064845;28;20225;-60
2021/07/08 11:06:45;;;;;;;1.50;1.40;;;;;;;24.34;56.45;97106.34;5060052;28;20190;-61
2021/07/08 11:09:16;;;;;;;1.40;1.40;;;;;;;24.57;55.87;97115.94;5059144;28;20259;-60
2021/07/08 11:11:44;;;;;;;1.95;1.65;;;;;;;24.66;56.34;97111.41;5065502;28;20197;-60
2021/07/08 11:14:11;;;;;;;1.60;1.50;;;;;;;24.71;56.36;97111.25;5060947;28;20231;-60
2021/07/08 11:16:48;;;;;;;1.60;1.50;;;;;;;24.93;55.90;97106.94;5059835;28;20178;-62
2021/07/08 11:19:15;;;;;;;1.98;1.88;;;;;;;24.90;55.13;97103.00;5061642;28;20177;-60
2021/07/08 11:21:57;;;;;;;1.80;1.70;;;;;;;25.18;54.39;97090.94;5053539;28;20181;-61
2021/07/08 11:24:47;;;;;;;1.67;1.58;;;;;;;25.50;53.67;97094.28;5062121;28;20630;-60
2021/07/08 11:27:17;;;;;;;1.42;1.38;;;;;;;25.65;53.95;97088.47;5055132;28;20183;-60
2021/07/08 11:29:46;;;;;;;1.52;1.42;;;;;;;25.65;54.15;97080.41;5061150;28;20206;-62
2021/07/08 11:32:29;;;;;;;1.70;1.60;;;;;;;26.05;53.41;97089.09;5063420;28;20212;-60
2021/07/08 11:34:59;;;;;;;1.73;1.63;;;;;;;25.28;55.43;97084.47;5057043;28;20170;-60
2021/07/08 11:37:43;;;;;;;3.03;1.77;;;;;;;24.91;55.47;97082.34;5058686;28;20193;-60